Time;durP1;ratioP1;P1;durP2;ratioP2;P2;SDS_P1;SDS_P2;PMS_P1;PMS_P2;Temp;Humidity;BMP_temperature;BMP_pressure;BME280_temperature;BME280_humidity;BME280_pressure;Samples;Min_cycle;Max_cycle;Signal;HPM_P1;HPM_P2
2021/08/19 00:01:53;;;;;;;12.30;9.00;;;;;;;17.66;86.92;101267.41;4993333;28;20557;-56
2021/08/19 00:04:20;;;;;;;12.13;7.50;;;;;;;17.67;86.09;101269.00;4993188;28;20393;-54
2021/08/19 00:06:48;;;;;;;16.63;9.90;;;;;;;17.68;86.61;101267.09;4992793;28;20050;-58
2021/08/19 00:09:16;;;;;;;15.52;10.45;;;;;;;17.67;86.65;101257.19;4992967;28;20046;-57
2021/08/19 00:11:43;;;;;;;16.25;11.13;;;;;;;17.67;86.99;101266.25;4992841;28;20039;-56
2021/08/19 00:14:11;;;;;;;16.00;11.07;;;;;;;17.68;86.75;101259.66;4992887;28;20054;-55
2021/08/19 00:16:38;;;;;;;19.83;10.15;;;;;;;17.70;86.99;101259.31;4992710;28;20145;-58
2021/08/19 00:19:06;;;;;;;14.00;10.00;;;;;;;17.64;86.99;101252.28;4993002;28;20133;-57
2021/08/19 00:21:34;;;;;;;16.77;11.82;;;;;;;17.63;87.59;101261.66;4992369;28;20038;-58
2021/08/19 00:24:01;;;;;;;14.88;10.70;;;;;;;17.60;87.88;101265.03;4993025;28;20429;-58
2021/08/19 00:26:29;;;;;;;18.92;12.32;;;;;;;17.59;88.25;101258.72;4992886;28;20038;-53
2021/08/19 00:29:03;;;;;;;13.15;9.88;;;;;;;17.59;88.14;101253.19;4992899;28;20046;-54
2021/08/19 00:31:31;;;;;;;14.77;10.70;;;;;;;17.61;87.80;101256.47;4992641;28;20505;-55
2021/08/19 00:33:58;;;;;;;16.88;9.98;;;;;;;17.63;87.83;101253.41;4992860;28;20141;-57
2021/08/19 00:36:26;;;;;;;16.33;10.30;;;;;;;17.61;87.74;101250.97;4992333;28;20046;-58
2021/08/19 00:38:54;;;;;;;15.02;9.43;;;;;;;17.61;87.80;101248.22;4992580;28;20038;-52
2021/08/19 00:41:21;;;;;;;11.38;8.57;;;;;;;17.64;87.50;101244.03;4992896;28;20053;-57
2021/08/19 00:43:49;;;;;;;15.68;9.50;;;;;;;17.65;87.35;101245.63;4992784;28;20038;-54
2021/08/19 00:46:44;;;;;;;16.58;10.02;;;;;;;17.64;87.57;101244.03;4996704;28;20409;-57
2021/08/19 00:49:13;;;;;;;14.03;9.03;;;;;;;17.63;87.84;101245.13;4995209;28;20058;-55
2021/08/19 00:51:45;;;;;;;18.08;10.88;;;;;;;17.62;87.89;101247.06;4996410;28;20282;-55
2021/08/19 00:54:23;;;;;;;19.63;10.95;;;;;;;17.61;87.86;101248.22;4996125;28;20038;-57
2021/08/19 00:56:54;;;;;;;14.02;9.13;;;;;;;17.60;87.93;101246.56;4996791;28;20122;-55
2021/08/19 00:59:25;;;;;;;17.33;10.57;;;;;;;17.61;88.16;101241.88;4996320;28;20502;-56
2021/08/19 01:01:54;;;;;;;15.48;11.35;;;;;;;17.59;88.63;101253.19;4996662;28;20074;-50
2021/08/19 01:04:42;;;;;;;16.98;11.23;;;;;;;17.58;88.82;101242.47;4995607;28;20046;-57
2021/08/19 01:07:10;;;;;;;19.60;12.00;;;;;;;17.56;88.94;101247.50;4996585;28;20049;-54
2021/08/19 01:09:38;;;;;;;19.30;12.35;;;;;;;17.53;89.14;101243.38;4995937;28;20034;-58
2021/08/19 01:12:06;;;;;;;14.27;10.80;;;;;;;17.52;89.18;101243.72;4996409;28;20042;-52
2021/08/19 01:14:34;;;;;;;16.33;11.63;;;;;;;17.53;89.46;101239.81;4994686;28;20042;-57
2021/08/19 01:17:15;;;;;;;15.98;10.68;;;;;;;17.53;89.08;101245.34;4995864;28;20050;-56
2021/08/19 01:19:46;;;;;;;14.82;10.52;;;;;;;17.54;89.32;101239.53;4995631;28;20057;-54
2021/08/19 01:22:15;;;;;;;15.95;11.88;;;;;;;17.53;89.44;101245.34;4996335;28;20077;-55
2021/08/19 01:24:43;;;;;;;19.92;13.07;;;;;;;17.53;89.49;101245.34;4995969;28;20584;-55
2021/08/19 01:27:15;;;;;;;16.35;12.70;;;;;;;17.52;89.67;101254.72;4996234;28;20039;-57
2021/08/19 01:29:45;;;;;;;18.35;13.15;;;;;;;17.50;89.66;101251.47;4995829;28;20158;-58
2021/08/19 01:32:13;;;;;;;18.48;10.85;;;;;;;17.52;89.29;101246.47;4995862;28;20050;-57
2021/08/19 01:34:41;;;;;;;20.15;13.02;;;;;;;17.51;89.35;101239.31;4995731;28;20057;-58
2021/08/19 01:37:10;;;;;;;15.30;10.73;;;;;;;17.53;88.88;101246.13;4995778;28;20050;-56
2021/08/19 01:39:37;;;;;;;18.65;12.25;;;;;;;17.53;89.36;101245.34;4995873;28;20129;-59
2021/08/19 01:42:05;;;;;;;18.27;13.23;;;;;;;17.50;89.18;101241.25;4985161;28;20039;-55
2021/08/19 01:44:34;;;;;;;19.40;12.95;;;;;;;17.48;89.52;101242.69;4976204;28;20039;-55
2021/08/19 01:47:03;;;;;;;18.90;12.88;;;;;;;17.48;89.46;101239.91;4981492;28;20047;-56
2021/08/19 01:49:32;;;;;;;20.95;14.20;;;;;;;17.46;89.44;101241.06;4995450;28;20046;-54
2021/08/19 01:52:00;;;;;;;21.95;13.93;;;;;;;17.48;89.17;101237.16;4996028;28;20053;-58
2021/08/19 01:54:28;;;;;;;17.55;11.18;;;;;;;17.50;88.70;101234.94;4995694;28;20054;-50
2021/08/19 01:56:55;;;;;;;23.20;14.77;;;;;;;17.49;88.95;101230.56;4994943;28;20400;-55
2021/08/19 01:59:27;;;;;;;16.35;11.95;;;;;;;17.48;88.35;101229.72;4995818;28;20050;-58
2021/08/19 02:01:56;;;;;;;22.40;13.40;;;;;;;17.50;88.44;101230.22;4995131;28;20026;-58
2021/08/19 02:04:25;;;;;;;21.63;14.70;;;;;;;17.49;88.65;101241.56;4995211;28;20042;-59
2021/08/19 02:06:53;;;;;;;19.80;12.50;;;;;;;17.46;88.47;101234.69;4995999;28;20038;-58
2021/08/19 02:09:20;;;;;;;23.88;14.02;;;;;;;17.47;88.50;101233.59;4996596;28;20042;-58
2021/08/19 02:11:48;;;;;;;22.73;14.40;;;;;;;17.46;88.77;101231.94;4995349;28;20409;-57
2021/08/19 02:14:15;;;;;;;20.13;14.23;;;;;;;17.48;88.57;101231.66;4995156;28;20061;-57
2021/08/19 02:16:43;;;;;;;18.60;13.20;;;;;;;17.50;88.10;101230.22;4994211;28;20050;-58
2021/08/19 02:19:12;;;;;;;18.00;11.30;;;;;;;17.49;88.30;101234.13;4995014;28;20061;-59
2021/08/19 02:21:39;;;;;;;19.40;13.90;;;;;;;17.50;88.16;101232.97;4994974;28;20042;-55
2021/08/19 02:24:07;;;;;;;18.25;12.98;;;;;;;17.52;88.13;101240.97;4994697;28;20049;-58
2021/08/19 02:26:35;;;;;;;19.05;12.32;;;;;;;17.51;87.98;101231.03;4995016;28;20050;-59
2021/08/19 02:29:02;;;;;;;14.88;10.68;;;;;;;17.50;87.91;101235.75;4994854;28;20133;-58
2021/08/19 02:31:30;;;;;;;16.38;11.27;;;;;;;17.52;87.76;101232.69;4994567;28;20080;-58
2021/08/19 02:33:58;;;;;;;19.60;12.55;;;;;;;17.51;87.67;101231.88;4994666;28;20046;-57
2021/08/19 02:36:25;;;;;;;15.80;9.93;;;;;;;17.49;87.17;101222.28;4994875;28;20039;-58
2021/08/19 02:38:53;;;;;;;21.02;14.40;;;;;;;17.48;87.87;101221.44;4994787;28;20056;-57
2021/08/19 02:41:20;;;;;;;24.08;15.35;;;;;;;17.51;87.40;101220.84;4994938;28;20047;-60
2021/08/19 02:43:48;;;;;;;15.93;10.25;;;;;;;17.52;87.41;101221.66;4994562;28;20053;-54
2021/08/19 02:46:15;;;;;;;19.85;14.90;;;;;;;17.48;87.88;101217.88;4993879;28;20045;-56
2021/08/19 02:48:43;;;;;;;15.93;10.90;;;;;;;17.50;87.34;101223.91;4994785;28;20378;-56
2021/08/19 02:51:11;;;;;;;23.75;15.65;;;;;;;17.49;87.74;101220.34;4994150;28;20041;-54
2021/08/19 02:53:38;;;;;;;22.20;16.40;;;;;;;17.50;87.54;101213.69;4994401;28;20042;-59
2021/08/19 02:56:07;;;;;;;24.65;16.60;;;;;;;17.50;87.30;101212.88;4994383;28;20050;-56
2021/08/19 02:58:34;;;;;;;17.83;12.65;;;;;;;17.46;87.31;101213.50;4994211;28;20049;-58
2021/08/19 03:01:02;;;;;;;19.70;12.65;;;;;;;17.50;86.61;101218.41;4994210;28;20049;-60
2021/08/19 03:03:29;;;;;;;23.55;14.80;;;;;;;17.50;86.84;101215.66;4994298;28;20056;-58
2021/08/19 03:05:58;;;;;;;13.30;7.43;;;;;;;17.52;85.37;101202.38;4994415;28;20042;-58
2021/08/19 03:08:26;;;;;;;21.98;15.55;;;;;;;17.50;87.06;101212.88;4993783;28;20042;-59
2021/08/19 03:10:53;;;;;;;17.48;13.27;;;;;;;17.50;86.31;101212.88;4994161;28;20061;-58
2021/08/19 03:13:21;;;;;;;30.55;19.85;;;;;;;17.48;87.24;101218.69;4994000;28;20109;-59
2021/08/19 03:15:49;;;;;;;25.88;17.25;;;;;;;17.46;87.00;101208.00;4993406;28;20493;-54
2021/08/19 03:18:16;;;;;;;22.33;15.85;;;;;;;17.48;86.86;101210.44;4993966;28;20371;-55
2021/08/19 03:20:44;;;;;;;25.10;17.63;;;;;;;17.45;87.11;101206.34;4994146;28;20600;-56
2021/08/19 03:23:11;;;;;;;21.40;13.50;;;;;;;17.44;87.02;101203.91;4993921;28;20038;-55
2021/08/19 03:25:39;;;;;;;23.52;17.00;;;;;;;17.43;87.03;101203.06;4994217;28;20041;-57
2021/08/19 03:28:08;;;;;;;26.58;18.90;;;;;;;17.45;86.85;101200.84;4995317;28;20046;-59
2021/08/19 03:30:36;;;;;;;23.77;16.42;;;;;;;17.44;86.55;101213.00;4994964;28;20070;-59
2021/08/19 03:33:05;;;;;;;24.92;15.40;;;;;;;17.42;86.80;101206.16;4995360;28;20501;-57
2021/08/19 03:35:34;;;;;;;26.98;16.85;;;;;;;17.41;87.03;101205.34;4994514;28;20531;-54
2021/08/19 03:38:01;;;;;;;20.23;15.43;;;;;;;17.41;86.90;101199.84;4993518;28;20047;-58
2021/08/19 03:40:29;;;;;;;25.23;18.02;;;;;;;17.39;87.07;101196.56;4979776;28;20042;-59
2021/08/19 03:42:56;;;;;;;23.95;17.33;;;;;;;17.40;86.90;101198.19;4993597;28;20088;-58
2021/08/19 03:45:24;;;;;;;27.63;19.58;;;;;;;17.39;87.17;101201.22;4992814;28;20046;-58
2021/08/19 03:47:52;;;;;;;25.73;18.10;;;;;;;17.40;86.58;101202.88;4993690;28;20038;-59
2021/08/19 03:50:19;;;;;;;24.33;18.42;;;;;;;17.39;86.73;101199.31;4993430;28;20046;-59
2021/08/19 03:52:47;;;;;;;22.55;17.30;;;;;;;17.39;86.67;101199.31;4993397;28;20050;-59
2021/08/19 03:55:15;;;;;;;23.95;16.25;;;;;;;17.41;86.65;101197.06;4993245;28;20523;-59
2021/08/19 03:57:43;;;;;;;25.70;18.40;;;;;;;17.40;86.43;101203.69;4993190;28;20034;-57
2021/08/19 04:00:11;;;;;;;22.67;16.67;;;;;;;17.41;85.98;101201.75;4992891;28;20505;-55
2021/08/19 04:02:39;;;;;;;26.40;19.73;;;;;;;17.39;86.61;101202.06;4993156;28;20057;-57
2021/08/19 04:05:07;;;;;;;30.33;19.75;;;;;;;17.37;86.57;101198.81;4979453;28;20497;-58
2021/08/19 04:07:38;;;;;;;26.25;19.63;;;;;;;17.36;86.48;101197.16;4993070;28;20551;-59
2021/08/19 04:10:06;;;;;;;22.05;16.08;;;;;;;17.33;86.63;101200.53;4993060;28;20043;-56
2021/08/19 04:12:35;;;;;;;23.25;15.70;;;;;;;17.32;86.41;101201.66;4992708;28;20604;-53
2021/08/19 04:15:04;;;;;;;30.88;20.38;;;;;;;17.30;86.87;101209.41;4992668;28;20050;-52
2021/08/19 04:17:31;;;;;;;25.05;16.45;;;;;;;17.31;86.48;101216.53;4993283;28;20061;-55
2021/08/19 04:19:59;;;;;;;27.55;19.02;;;;;;;17.26;87.02;101211.13;4991975;28;20062;-55
2021/08/19 04:22:27;;;;;;;28.73;18.50;;;;;;;17.24;87.14;101210.59;4993065;28;20042;-55
2021/08/19 04:24:54;;;;;;;25.58;18.42;;;;;;;17.24;87.13;101216.94;4992641;28;20524;-59
2021/08/19 04:27:22;;;;;;;21.00;13.20;;;;;;;17.29;86.44;101213.25;4992633;28;20054;-56
2021/08/19 04:29:49;;;;;;;23.73;14.40;;;;;;;17.30;86.59;101212.16;4992993;28;20046;-58
2021/08/19 04:32:17;;;;;;;25.90;18.52;;;;;;;17.26;86.62;101208.38;4992884;28;20076;-58
2021/08/19 04:34:45;;;;;;;27.85;17.02;;;;;;;17.25;86.99;101213.06;4992888;28;20057;-58
2021/08/19 04:37:13;;;;;;;26.48;19.40;;;;;;;17.25;86.88;101212.25;4989166;28;20042;-58
2021/08/19 04:39:40;;;;;;;27.05;18.42;;;;;;;17.23;86.65;101204.28;4992082;28;20069;-57
2021/08/19 04:42:08;;;;;;;15.02;10.48;;;;;;;17.27;86.46;101204.50;4990625;28;20505;-59
2021/08/19 04:44:36;;;;;;;25.52;17.63;;;;;;;17.27;86.48;101207.25;4991850;28;20042;-58
2021/08/19 04:47:03;;;;;;;27.17;18.73;;;;;;;17.29;86.42;101207.75;4991075;28;20050;-54
2021/08/19 04:49:31;;;;;;;25.15;17.85;;;;;;;17.30;86.51;101209.41;4991082;28;20478;-62
2021/08/19 04:51:59;;;;;;;25.38;19.60;;;;;;;17.30;86.33;101206.66;4991890;28;20049;-54
2021/08/19 04:54:26;;;;;;;26.48;18.30;;;;;;;17.26;86.42;101208.38;4991162;28;20043;-57
2021/08/19 04:56:54;;;;;;;25.70;16.85;;;;;;;17.26;86.36;101208.38;4989467;28;20413;-58
2021/08/19 04:59:21;;;;;;;27.88;18.25;;;;;;;17.24;86.83;101210.59;4980003;28;20433;-58
2021/08/19 05:01:49;;;;;;;24.05;16.40;;;;;;;17.26;86.64;101208.38;4984899;28;20046;-55
2021/08/19 05:04:18;;;;;;;27.70;18.95;;;;;;;17.27;86.68;101211.94;4979473;28;20049;-58
2021/08/19 05:06:45;;;;;;;23.17;16.40;;;;;;;17.27;86.45;101207.25;4985055;28;20114;-57
2021/08/19 05:09:13;;;;;;;23.75;15.30;;;;;;;17.27;86.78;101210.03;4980031;28;20046;-56
2021/08/19 05:11:40;;;;;;;26.83;17.88;;;;;;;17.26;86.45;101211.13;4982861;28;20050;-58
2021/08/19 05:14:08;;;;;;;24.92;17.10;;;;;;;17.27;86.82;101212.78;4981782;28;20058;-57
2021/08/19 05:16:36;;;;;;;22.90;15.82;;;;;;;17.30;86.69;101220.41;4981511;28;20058;-52
2021/08/19 05:19:03;;;;;;;29.77;18.73;;;;;;;17.25;86.68;101213.06;4983118;28;20481;-50
2021/08/19 05:21:31;;;;;;;25.55;17.23;;;;;;;17.25;86.54;101212.25;4980428;28;20055;-55
2021/08/19 05:23:58;;;;;;;27.00;18.35;;;;;;;17.23;86.80;101214.50;4984266;28;20045;-52
2021/08/19 05:26:26;;;;;;;27.05;19.25;;;;;;;17.23;86.52;101214.50;4979068;28;20054;-53
2021/08/19 05:28:53;;;;;;;26.98;17.30;;;;;;;17.21;86.70;101223.03;4296519;28;10000843;-58
2021/08/19 05:31:21;;;;;;;27.70;18.30;;;;;;;17.20;87.05;101220.59;4980126;28;20058;-58
2021/08/19 05:33:49;;;;;;;27.65;17.38;;;;;;;17.21;87.15;101222.22;4985156;28;20096;-55
2021/08/19 05:36:16;;;;;;;29.15;17.67;;;;;;;17.23;87.14;101225.50;4982963;28;20046;-54
2021/08/19 05:38:44;;;;;;;25.52;17.63;;;;;;;17.22;87.06;101224.69;4983330;28;20493;-52
2021/08/19 05:41:12;;;;;;;26.65;20.05;;;;;;;17.21;87.08;101233.25;4983471;28;20415;-53
2021/08/19 05:43:39;;;;;;;28.27;19.70;;;;;;;17.21;87.09;101230.50;4981735;28;20074;-52
2021/08/19 05:46:08;;;;;;;25.20;17.10;;;;;;;17.26;86.60;101230.41;4985371;28;20046;-53
2021/08/19 05:48:36;;;;;;;26.83;19.40;;;;;;;17.23;86.68;101236.53;4980638;28;20062;-51
2021/08/19 05:51:04;;;;;;;30.00;17.00;;;;;;;17.21;86.92;101241.50;4993142;28;20050;-47
2021/08/19 05:53:32;;;;;;;27.50;19.05;;;;;;;17.27;87.04;101250.50;4995404;28;20054;-51
2021/08/19 05:55:59;;;;;;;27.77;18.35;;;;;;;17.29;86.73;101248.25;4981232;28;20054;-52
2021/08/19 05:58:27;;;;;;;29.70;19.60;;;;;;;17.29;86.77;101240.81;4994301;28;20042;-59
2021/08/19 06:00:54;;;;;;;23.33;17.27;;;;;;;17.27;86.72;101237.56;4995534;28;20042;-55
2021/08/19 06:03:22;;;;;;;27.00;18.65;;;;;;;17.27;86.98;101248.56;4995163;28;20069;-58
2021/08/19 06:05:50;;;;;;;30.17;19.52;;;;;;;17.26;86.84;101238.66;4983826;28;20509;-52
2021/08/19 06:08:18;;;;;;;25.98;18.48;;;;;;;17.27;86.84;101244.97;4993243;28;20038;-53
2021/08/19 06:10:46;;;;;;;24.50;18.40;;;;;;;17.23;87.22;101247.53;4994768;28;20049;-54
2021/08/19 06:13:14;;;;;;;29.13;19.83;;;;;;;17.22;87.32;101251.38;4995105;28;20057;-53
2021/08/19 06:15:42;;;;;;;29.23;19.10;;;;;;;17.26;86.54;101246.94;4994872;28;20069;-53
2021/08/19 06:18:09;;;;;;;26.70;19.42;;;;;;;17.21;87.06;101247.00;4995172;28;20105;-54
2021/08/19 06:20:37;;;;;;;33.78;20.73;;;;;;;17.21;87.29;101247.81;4995320;28;20038;-52
2021/08/19 06:23:11;;;;;;;28.40;20.27;;;;;;;17.20;87.46;101243.44;4994714;28;20045;-54
2021/08/19 06:25:41;;;;;;;26.65;19.92;;;;;;;17.20;87.35;101242.66;4994891;28;20039;-55
2021/08/19 06:28:09;;;;;;;30.73;20.63;;;;;;;17.20;87.42;101239.88;4995080;28;20086;-55
2021/08/19 06:30:37;;;;;;;27.25;20.10;;;;;;;17.23;87.33;101244.78;4995086;28;20042;-56
2021/08/19 06:33:06;;;;;;;25.00;17.92;;;;;;;17.23;87.30;101253.03;4994991;28;20078;-55
2021/08/19 06:35:33;;;;;;;27.63;17.08;;;;;;;17.29;86.76;101257.31;4994825;28;20121;-58
2021/08/19 06:38:01;;;;;;;29.83;20.50;;;;;;;17.28;87.11;101254.91;4994220;28;20492;-58
2021/08/19 06:40:29;;;;;;;26.55;18.88;;;;;;;17.26;87.31;101252.44;4994379;28;20049;-58
2021/08/19 06:42:57;;;;;;;32.60;20.40;;;;;;;17.30;86.80;101253.47;4994246;28;20042;-58
2021/08/19 06:45:24;;;;;;;22.35;16.08;;;;;;;17.29;86.98;101256.50;4994200;28;20038;-55
2021/08/19 06:47:52;;;;;;;26.42;16.77;;;;;;;17.31;86.73;101254.28;4994796;28;20066;-56
2021/08/19 06:50:20;;;;;;;27.50;19.90;;;;;;;17.28;87.07;101254.91;4994320;28;20047;-58
2021/08/19 06:52:47;;;;;;;36.15;22.33;;;;;;;17.26;87.43;101255.19;4993979;28;20046;-55
2021/08/19 06:55:15;;;;;;;29.10;21.90;;;;;;;17.27;87.25;101258.75;4994461;28;20042;-55
2021/08/19 06:57:43;;;;;;;30.77;21.88;;;;;;;17.24;87.28;101261.00;4994351;28;20050;-53
2021/08/19 07:00:11;;;;;;;24.20;16.40;;;;;;;17.24;87.26;101255.50;4994484;28;20042;-54
2021/08/19 07:02:39;;;;;;;28.80;20.00;;;;;;;17.28;87.43;101255.72;4994273;28;20046;-53
2021/08/19 07:05:08;;;;;;;26.20;17.90;;;;;;;17.31;87.12;101260.59;4976058;28;20510;-56
2021/08/19 07:07:35;;;;;;;24.75;18.50;;;;;;;17.31;87.11;101257.84;4986525;28;20046;-55
2021/08/19 07:10:07;;;;;;;28.48;19.27;;;;;;;17.29;87.14;101254.56;4993667;28;20070;-55
2021/08/19 07:12:36;;;;;;;26.13;18.23;;;;;;;17.29;87.06;101251.81;4994286;28;20035;-54
2021/08/19 07:15:05;;;;;;;29.60;19.63;;;;;;;17.32;86.72;101255.91;4993660;28;20484;-59
2021/08/19 07:17:33;;;;;;;26.02;18.92;;;;;;;17.30;87.11;101258.16;4993936;28;20046;-58
2021/08/19 07:20:00;;;;;;;25.80;17.63;;;;;;;17.28;87.30;101255.72;4993799;28;20093;-57
2021/08/19 07:22:28;;;;;;;28.48;19.45;;;;;;;17.28;87.33;101260.41;4993697;28;20042;-59
2021/08/19 07:24:56;;;;;;;24.92;18.35;;;;;;;17.29;87.58;101259.28;4993637;28;20079;-58
2021/08/19 07:27:23;;;;;;;23.17;15.30;;;;;;;17.31;87.33;101262.53;4994149;28;20046;-58
2021/08/19 07:29:51;;;;;;;27.55;19.05;;;;;;;17.29;87.69;101260.06;4993881;28;20046;-57
2021/08/19 07:32:20;;;;;;;30.80;19.45;;;;;;;17.29;87.49;101262.84;4993846;28;20057;-59
2021/08/19 07:34:48;;;;;;;27.17;19.33;;;;;;;17.29;87.75;101267.53;4993456;28;20038;-58
2021/08/19 07:37:16;;;;;;;28.60;18.15;;;;;;;17.32;87.23;101266.91;4993158;28;20031;-58
2021/08/19 07:39:43;;;;;;;39.60;17.45;;;;;;;17.34;86.31;101260.00;4993338;28;20054;-57
2021/08/19 07:42:11;;;;;;;26.40;16.42;;;;;;;17.33;87.27;101268.56;4993663;28;20078;-55
2021/08/19 07:44:39;;;;;;;41.05;17.58;;;;;;;17.37;85.94;101267.66;4993600;28;20489;-52
2021/08/19 07:47:06;;;;;;;25.10;16.77;;;;;;;17.33;87.39;101269.38;4993799;28;20481;-59
2021/08/19 07:49:34;;;;;;;27.00;17.98;;;;;;;17.34;87.59;101273.78;4992958;28;20043;-59
2021/08/19 07:52:02;;;;;;;25.05;15.82;;;;;;;17.37;86.93;101273.16;4992928;28;20038;-56
2021/08/19 07:54:29;;;;;;;28.58;17.20;;;;;;;17.36;87.44;101274.28;4992561;28;20046;-57
2021/08/19 07:56:57;;;;;;;24.50;16.35;;;;;;;17.34;87.60;101278.44;4993491;28;20035;-57
2021/08/19 07:59:24;;;;;;;26.00;16.00;;;;;;;17.31;87.65;101276.31;4993339;28;20046;-54
2021/08/19 08:01:52;;;;;;;22.50;14.57;;;;;;;17.31;88.13;101277.13;4993127;28;20401;-57
2021/08/19 08:04:20;;;;;;;23.50;16.45;;;;;;;17.28;88.15;101271.41;4992858;28;20096;-58
2021/08/19 08:06:47;;;;;;;22.00;13.10;;;;;;;17.28;87.60;101282.44;4992547;28;20065;-58
2021/08/19 08:09:15;;;;;;;27.95;14.63;;;;;;;17.33;87.32;101285.91;4993357;28;20042;-58
2021/08/19 08:11:42;;;;;;;22.80;15.95;;;;;;;17.32;87.41;101286.19;4992927;28;20034;-58
2021/08/19 08:14:10;;;;;;;26.98;11.77;;;;;;;17.30;86.96;101283.75;4993128;28;20197;-58
2021/08/19 08:16:38;;;;;;;25.35;16.50;;;;;;;17.25;87.65;101289.38;4992675;28;20520;-57
2021/08/19 08:19:07;;;;;;;23.15;13.38;;;;;;;17.25;87.67;101278.34;4992421;28;20497;-57
2021/08/19 08:21:36;;;;;;;24.90;16.25;;;;;;;17.35;86.33;101288.38;4992837;28;20085;-55
2021/08/19 08:24:04;;;;;;;25.60;16.33;;;;;;;17.32;87.21;101289.78;4993039;28;20045;-59
2021/08/19 08:26:32;;;;;;;26.50;15.88;;;;;;;17.32;87.36;101288.94;4992657;28;20050;-59
2021/08/19 08:29:00;;;;;;;24.30;15.82;;;;;;;17.27;87.61;101286.28;4992792;28;20130;-59
2021/08/19 08:31:27;;;;;;;21.85;15.50;;;;;;;17.25;87.93;101287.41;4992979;28;20041;-59
2021/08/19 08:33:56;;;;;;;24.10;16.65;;;;;;;17.33;87.02;101294.16;4992335;28;20030;-60
2021/08/19 08:36:24;;;;;;;21.52;14.68;;;;;;;17.36;86.64;101296.31;4992913;28;20045;-60
2021/08/19 08:38:51;;;;;;;21.40;16.27;;;;;;;17.34;86.50;101295.81;4992728;28;20041;-59
2021/08/19 08:41:19;;;;;;;26.52;12.52;;;;;;;17.38;85.87;101294.06;4992828;28;20046;-62
2021/08/19 08:43:48;;;;;;;20.02;13.75;;;;;;;17.35;86.40;101302.94;4992285;28;20035;-60
2021/08/19 08:46:18;;;;;;;19.58;12.18;;;;;;;17.34;86.50;101301.34;4992969;28;20137;-60
2021/08/19 08:48:48;;;;;;;24.23;13.95;;;;;;;17.34;86.73;101301.34;4992099;28;20050;-59
2021/08/19 08:51:15;;;;;;;18.17;11.73;;;;;;;17.36;86.47;101301.81;4992369;28;20406;-59
2021/08/19 08:53:43;;;;;;;21.00;13.13;;;;;;;17.35;86.65;101304.91;4991623;28;20043;-59
2021/08/19 08:56:24;;;;;;;18.65;12.95;;;;;;;17.43;85.54;101306.94;4992455;28;20089;-60
2021/08/19 08:58:52;;;;;;;16.90;11.63;;;;;;;17.41;85.65;101310.03;4991688;28;20046;-60
2021/08/19 09:01:19;;;;;;;15.15;7.25;;;;;;;17.45;84.28;101316.53;4992244;28;20053;-55
2021/08/19 09:03:48;;;;;;;23.95;13.40;;;;;;;17.45;85.34;101311.03;4992112;28;20031;-59
2021/08/19 09:06:37;;;;;;;19.55;12.10;;;;;;;17.42;85.83;101322.66;4995153;28;20053;-57
2021/08/19 09:09:22;;;;;;;19.85;12.90;;;;;;;17.43;85.61;101318.78;4996476;28;20043;-59
2021/08/19 09:11:54;;;;;;;22.60;13.80;;;;;;;17.43;85.33;101324.28;4995830;28;20035;-60
2021/08/19 09:14:25;;;;;;;23.25;13.93;;;;;;;17.42;85.52;101317.16;4996160;28;20479;-55
2021/08/19 09:16:53;;;;;;;19.00;11.55;;;;;;;17.44;85.13;101319.63;4995734;28;20046;-58
2021/08/19 09:19:22;;;;;;;15.38;8.85;;;;;;;17.41;85.39;101326.56;4991609;28;20061;-58
2021/08/19 09:21:52;;;;;;;17.17;10.88;;;;;;;17.41;85.59;101332.06;4993769;28;20042;-58
2021/08/19 09:24:25;;;;;;;13.80;9.65;;;;;;;17.48;84.97;101336.34;4996258;28;20527;-59
2021/08/19 09:26:54;;;;;;;19.10;11.15;;;;;;;17.43;85.19;101335.31;4995943;28;20461;-59
2021/08/19 09:29:28;;;;;;;22.80;12.68;;;;;;;17.39;85.53;101333.44;4996256;28;20124;-57
2021/08/19 09:32:08;;;;;;;18.05;11.85;;;;;;;17.35;85.69;101326.94;4995557;28;20046;-58
2021/08/19 09:34:37;;;;;;;15.05;8.57;;;;;;;17.39;85.08;101331.53;4995930;28;20039;-59
2021/08/19 09:37:09;;;;;;;21.70;12.90;;;;;;;17.43;85.61;101332.56;4995641;28;20520;-54
2021/08/19 09:39:39;;;;;;;18.25;13.43;;;;;;;17.39;85.90;101339.81;4995845;28;20038;-60
2021/08/19 09:42:08;;;;;;;19.55;12.70;;;;;;;17.36;86.12;101340.38;4995706;28;20042;-60
2021/08/19 09:44:44;;;;;;;21.02;13.38;;;;;;;17.34;86.67;101347.31;4995454;28;20046;-59
2021/08/19 09:47:32;;;;;;;15.90;10.00;;;;;;;17.40;84.81;101346.94;4995286;28;20564;-59
2021/08/19 09:50:18;;;;;;;17.00;12.65;;;;;;;17.34;86.89;101347.31;4991306;28;20486;-60
2021/08/19 09:52:48;;;;;;;16.88;10.32;;;;;;;17.34;87.16;101345.41;4991984;28;20105;-59
2021/08/19 09:55:27;;;;;;;19.08;13.38;;;;;;;17.34;87.48;101339.91;4995723;28;20051;-58
2021/08/19 09:57:57;;;;;;;19.48;13.35;;;;;;;17.27;88.08;101341.38;4995265;28;20494;-58
2021/08/19 10:00:26;;;;;;;22.13;14.20;;;;;;;17.23;88.49;101338.41;4995483;28;20080;-56
2021/08/19 10:02:54;;;;;;;21.05;14.63;;;;;;;17.20;88.72;101336.28;4995160;28;20093;-59
2021/08/19 10:05:22;;;;;;;20.17;15.95;;;;;;;17.21;89.24;101337.91;4995360;28;20138;-59
2021/08/19 10:07:50;;;;;;;20.55;15.15;;;;;;;17.27;88.21;101331.19;4995442;28;20038;-58
2021/08/19 10:10:18;;;;;;;21.73;17.17;;;;;;;17.26;88.64;101332.31;4995089;28;20046;-59
2021/08/19 10:12:47;;;;;;;23.48;15.45;;;;;;;17.25;88.86;101333.44;4995353;28;20397;-60
2021/08/19 10:15:15;;;;;;;24.23;18.00;;;;;;;17.23;89.53;101324.66;4994024;28;20395;-55
2021/08/19 10:17:49;;;;;;;22.60;18.65;;;;;;;17.19;89.43;101329.09;4994264;28;20039;-59
2021/08/19 10:20:19;;;;;;;24.20;17.02;;;;;;;17.16;89.57;101330.53;4993766;28;20055;-55
2021/08/19 10:22:48;;;;;;;21.15;16.85;;;;;;;17.14;89.68;101334.69;4994124;28;20046;-58
2021/08/19 10:25:18;;;;;;;24.10;17.77;;;;;;;17.17;90.23;101339.59;4993771;28;20035;-56
2021/08/19 10:27:46;;;;;;;23.88;18.48;;;;;;;17.18;89.84;101339.31;4993918;28;20041;-58
2021/08/19 10:30:22;;;;;;;21.17;16.63;;;;;;;17.16;89.92;101343.50;4994444;28;20077;-55
2021/08/19 10:32:55;;;;;;;18.52;14.52;;;;;;;17.12;90.07;101339.69;4994916;28;20139;-58
2021/08/19 10:35:26;;;;;;;24.98;16.73;;;;;;;17.11;90.03;101329.81;4994849;28;20046;-58
2021/08/19 10:37:54;;;;;;;23.10;15.60;;;;;;;17.16;89.43;101335.22;4994985;28;20064;-59
2021/08/19 10:40:31;;;;;;;20.52;14.50;;;;;;;17.17;89.56;101339.59;4994695;28;20374;-58
2021/08/19 10:43:19;;;;;;;19.92;14.50;;;;;;;17.14;89.39;101341.03;4989999;28;20517;-57
2021/08/19 10:45:47;;;;;;;23.52;14.07;;;;;;;17.19;87.47;101334.63;4993811;28;20042;-57
2021/08/19 10:48:14;;;;;;;16.92;11.48;;;;;;;17.13;87.29;101333.88;4989144;28;20050;-58
2021/08/19 10:50:46;;;;;;;18.35;11.40;;;;;;;17.14;87.39;101332.75;4991569;28;20056;-56
2021/08/19 10:53:21;;;;;;;19.45;12.15;;;;;;;17.17;87.17;101325.84;4994671;28;20050;-58
2021/08/19 10:55:53;;;;;;;18.85;11.27;;;;;;;17.19;87.24;101329.09;4994211;28;20053;-56
2021/08/19 10:58:27;;;;;;;16.42;10.80;;;;;;;17.24;86.64;101323.50;4994055;28;20050;-58
2021/08/19 11:01:00;;;;;;;18.02;11.48;;;;;;;17.28;86.60;101324.56;4992616;28;20468;-56
2021/08/19 11:03:39;;;;;;;19.45;12.13;;;;;;;17.31;86.52;101325.88;4994508;28;20034;-58
2021/08/19 11:06:09;;;;;;;21.88;12.13;;;;;;;17.40;86.01;101324.09;4994131;28;20494;-58
2021/08/19 11:08:57;;;;;;;15.75;10.38;;;;;;;17.43;86.39;101332.56;4994067;28;20113;-57
2021/08/19 11:11:30;;;;;;;18.17;10.23;;;;;;;17.47;86.11;101324.50;4992481;28;20073;-56
2021/08/19 11:14:12;;;;;;;16.85;10.40;;;;;;;17.51;85.15;101325.56;4992825;28;20031;-59
2021/08/19 11:16:41;;;;;;;15.73;11.52;;;;;;;17.53;85.74;101328.00;4992223;28;20170;-59
2021/08/19 11:19:13;;;;;;;16.50;10.80;;;;;;;17.52;86.16;101331.88;4993227;28;20045;-58